Time;durP1;ratioP1;P1;durP2;ratioP2;P2;SDS_P1;SDS_P2;PMS_P1;PMS_P2;Temp;Humidity;BMP_temperature;BMP_pressure;BME280_temperature;BME280_humidity;BME280_pressure;Samples;Min_cycle;Max_cycle;Signal;HPM_P1;HPM_P2
2022/09/10 00:01:58;;;;;;;2.03;0.60;;;14.50;99.90;;;;;;10385181;28;20043;-62
2022/09/10 00:07:00;;;;;;;2.75;0.73;;;14.60;99.90;;;;;;10394505;28;20123;-59
2022/09/10 00:12:02;;;;;;;1.88;0.50;;;14.60;99.90;;;;;;10390089;28;20148;-60
2022/09/10 00:17:04;;;;;;;1.52;0.40;;;14.60;99.90;;;;;;10400187;28;20437;-60
2022/09/10 00:22:05;;;;;;;0.77;0.40;;;14.70;99.90;;;;;;10385018;28;20043;-59
2022/09/10 00:27:08;;;;;;;3.60;0.60;;;14.70;99.90;;;;;;10390759;28;20118;-60
2022/09/10 00:32:10;;;;;;;3.15;0.30;;;14.70;99.90;;;;;;10388739;28;20136;-60
2022/09/10 00:37:12;;;;;;;4.05;0.50;;;14.80;99.90;;;;;;10394556;28;20049;-62
2022/09/10 00:42:14;;;;;;;4.03;0.40;;;14.80;99.90;;;;;;10394558;28;20059;-60
2022/09/10 00:47:21;;;;;;;1.13;0.40;;;14.80;99.90;;;;;;10399231;28;21372;-61
2022/09/10 00:52:23;;;;;;;4.88;0.60;;;14.90;99.90;;;;;;10395520;28;20046;-62
2022/09/10 00:57:27;;;;;;;1.52;0.80;;;14.80;99.90;;;;;;10391618;28;20076;-60
2022/09/10 01:02:29;;;;;;;4.05;1.02;;;14.90;99.90;;;;;;10394682;28;20126;-61
2022/09/10 01:07:32;;;;;;;4.35;0.60;;;14.90;99.90;;;;;;10406611;28;20634;-59
2022/09/10 01:13:12;;;;;;;2.20;0.60;;;14.90;99.90;;;;;;10404092;28;20462;-60
2022/09/10 01:18:31;;;;;;;1.55;0.70;;;15.00;99.90;;;;;;10408725;28;20059;-60
2022/09/10 01:23:58;;;;;;;3.53;0.60;;;15.00;99.90;;;;;;10402341;28;20545;-59
2022/09/10 01:29:13;;;;;;;1.30;0.80;;;15.10;99.90;;;;;;10402341;28;20041;-62
2022/09/10 01:34:25;;;;;;;6.60;0.68;;;15.00;99.90;;;;;;10404657;28;20064;-62
2022/09/10 01:39:28;;;;;;;1.65;0.88;;;15.00;99.90;;;;;;10403399;28;20137;-61
2022/09/10 01:44:40;;;;;;;2.30;0.80;;;15.10;99.90;;;;;;10406333;28;20096;-61
2022/09/10 01:49:57;;;;;;;1.05;0.50;;;15.00;99.90;;;;;;10400692;28;20049;-60
2022/09/10 01:55:29;;;;;;;1.23;0.60;;;15.00;99.90;;;;;;10402528;28;20041;-60
2022/09/10 02:00:34;;;;;;;3.17;0.57;;;15.00;99.90;;;;;;10372170;28;20041;-61
2022/09/10 02:05:40;;;;;;;2.85;0.68;;;15.00;99.90;;;;;;10396612;28;20077;-60
2022/09/10 02:10:58;;;;;;;3.88;1.02;;;14.90;99.90;;;;;;10409293;28;20140;-60
2022/09/10 02:16:02;;;;;;;2.65;0.60;;;14.90;99.90;;;;;;10406714;28;20190;-59
2022/09/10 02:21:05;;;;;;;2.35;0.38;;;14.90;99.90;;;;;;10388900;28;20045;-60
2022/09/10 02:26:07;;;;;;;4.70;0.50;;;14.90;99.90;;;;;;10407294;28;20065;-61
2022/09/10 02:31:09;;;;;;;0.77;0.60;;;14.90;99.90;;;;;;10403835;28;20148;-63
2022/09/10 02:36:11;;;;;;;1.30;0.50;;;14.90;99.90;;;;;;10408065;28;20064;-61
2022/09/10 02:41:14;;;;;;;2.92;0.80;;;14.90;99.90;;;;;;10404069;28;20041;-61
2022/09/10 02:46:16;;;;;;;4.07;0.82;;;15.00;99.90;;;;;;10404721;28;20051;-63
2022/09/10 02:51:17;;;;;;;2.85;0.82;;;15.00;99.90;;;;;;10400405;28;20077;-61
2022/09/10 02:56:19;;;;;;;1.45;0.80;;;15.10;99.90;;;;;;10397988;28;20583;-63
2022/09/10 03:01:21;;;;;;;3.63;0.70;;;15.10;99.90;;;;;;10390855;28;20124;-61
2022/09/10 03:06:24;;;;;;;4.00;0.70;;;15.10;99.90;;;;;;10400756;28;20076;-61
2022/09/10 03:11:26;;;;;;;2.13;0.65;;;15.10;99.90;;;;;;10399042;28;20050;-60
2022/09/10 03:16:28;;;;;;;6.55;0.60;;;15.10;99.90;;;;;;10382368;28;20045;-73
2022/09/10 03:21:30;;;;;;;3.38;0.43;;;15.10;99.90;;;;;;10403325;28;20546;-67
2022/09/10 03:26:33;;;;;;;5.93;0.57;;;15.00;99.90;;;;;;10378453;28;20487;-70
2022/09/10 03:31:35;;;;;;;8.88;0.60;;;15.10;99.90;;;;;;10394580;28;20073;-70
2022/09/10 03:36:37;;;;;;;0.77;0.75;;;15.00;99.90;;;;;;10394554;28;20116;-71
2022/09/10 03:41:39;;;;;;;3.30;0.95;;;15.00;99.90;;;;;;10403592;28;20553;-69
2022/09/10 03:46:40;;;;;;;1.40;0.30;;;15.00;99.90;;;;;;10401159;28;20120;-70
2022/09/10 03:51:42;;;;;;;1.63;0.40;;;15.00;99.90;;;;;;10391177;28;20141;-68
2022/09/10 03:56:44;;;;;;;0.50;0.30;;;15.00;99.90;;;;;;10389199;28;20159;-70
2022/09/10 04:01:46;;;;;;;0.55;0.30;;;15.00;99.90;;;;;;10400469;28;20043;-72
2022/09/10 04:06:47;;;;;;;0.93;0.63;;;15.10;99.90;;;;;;10393339;28;20059;-72
2022/09/10 04:11:49;;;;;;;7.13;1.08;;;15.10;99.90;;;;;;10389054;28;20574;-72
2022/09/10 04:16:51;;;;;;;1.38;0.35;;;15.10;99.90;;;;;;10399760;28;20077;-70
2022/09/10 04:21:53;;;;;;;0.50;0.40;;;15.10;99.90;;;;;;10389066;28;20080;-69
2022/09/10 04:26:55;;;;;;;4.38;0.40;;;15.10;99.90;;;;;;10391820;28;20041;-72
2022/09/10 04:31:57;;;;;;;1.13;0.30;;;15.00;99.90;;;;;;10377584;28;20050;-67
2022/09/10 04:37:00;;;;;;;1.80;0.40;;;15.00;99.90;;;;;;10405153;28;20136;-70
2022/09/10 04:42:02;;;;;;;15.32;5.32;;;15.00;99.90;;;;;;10404966;28;20204;-67
2022/09/10 04:47:05;;;;;;;1.85;0.55;;;15.00;99.90;;;;;;10406614;28;20055;-69
2022/09/10 04:52:06;;;;;;;2.70;0.90;;;14.90;99.90;;;;;;10402550;28;20045;-69
2022/09/10 04:57:08;;;;;;;3.88;0.63;;;14.90;99.90;;;;;;10399419;28;20886;-67
2022/09/10 05:02:10;;;;;;;0.70;0.50;;;14.90;99.90;;;;;;10404650;28;20136;-68
2022/09/10 05:07:11;;;;;;;1.95;0.70;;;14.80;99.90;;;;;;10412578;28;20451;-69
2022/09/10 05:12:14;;;;;;;1.98;0.65;;;14.80;99.90;;;;;;10394659;28;20080;-65
2022/09/10 05:17:15;;;;;;;1.27;0.63;;;14.80;99.90;;;;;;10391622;28;20054;-63
2022/09/10 05:22:17;;;;;;;1.63;0.60;;;14.80;99.90;;;;;;10397219;28;20488;-67
2022/09/10 05:27:19;;;;;;;3.88;0.80;;;14.80;99.90;;;;;;10400984;28;20475;-70
2022/09/10 05:32:20;;;;;;;2.63;0.98;;;14.80;99.90;;;;;;10394335;28;20137;-70
2022/09/10 05:37:22;;;;;;;3.80;1.00;;;14.90;99.90;;;;;;10404806;28;20045;-68
2022/09/10 05:42:24;;;;;;;6.00;1.60;;;15.00;99.90;;;;;;10398896;28;20133;-70
2022/09/10 05:47:27;;;;;;;3.22;0.75;;;15.10;99.90;;;;;;10411122;28;20535;-68
2022/09/10 05:52:29;;;;;;;3.90;1.10;;;15.00;99.90;;;;;;10401432;28;20116;-70
2022/09/10 05:57:32;;;;;;;2.42;0.88;;;14.90;99.90;;;;;;10411162;28;20113;-69
2022/09/10 06:02:33;;;;;;;3.63;1.25;;;14.90;99.90;;;;;;10404928;28;20073;-64
2022/09/10 06:07:35;;;;;;;4.18;0.95;;;14.80;99.90;;;;;;10419027;28;20041;-66
2022/09/10 06:12:37;;;;;;;4.05;1.17;;;14.90;99.90;;;;;;10416768;28;20132;-63
2022/09/10 06:17:39;;;;;;;3.83;1.40;;;14.90;99.90;;;;;;10400554;28;20571;-69
2022/09/10 06:22:40;;;;;;;3.53;1.10;;;14.90;99.90;;;;;;10425486;28;20124;-65
2022/09/10 06:27:43;;;;;;;4.75;1.17;;;14.80;99.90;;;;;;10412423;28;20069;-68
2022/09/10 06:32:44;;;;;;;3.13;1.50;;;14.90;99.90;;;;;;10405084;28;20049;-67
2022/09/10 06:37:46;;;;;;;2.25;1.05;;;14.80;99.90;;;;;;10408885;28;20555;-71
2022/09/10 06:42:48;;;;;;;3.25;1.20;;;14.80;99.90;;;;;;10399634;28;20075;-71
2022/09/10 06:47:51;;;;;;;4.38;1.40;;;14.70;99.90;;;;;;10405706;28;20128;-70
2022/09/10 06:53:13;;;;;;;3.95;1.25;;;14.80;99.90;;;;;;10413444;28;20062;-69
2022/09/10 06:58:16;;;;;;;4.50;1.17;;;14.70;99.90;;;;;;10416101;28;20041;-66
2022/09/10 07:03:19;;;;;;;4.35;1.38;;;14.80;99.90;;;;;;10418864;28;20053;-71
2022/09/10 07:08:21;;;;;;;2.75;1.10;;;14.80;99.90;;;;;;10423301;28;20052;-69
2022/09/10 07:13:24;;;;;;;3.42;1.25;;;14.90;99.90;;;;;;10422850;28;20072;-69
2022/09/10 07:18:27;;;;;;;2.85;0.63;;;14.90;99.90;;;;;;10423873;28;20060;-68
2022/09/10 07:23:30;;;;;;;1.80;0.98;;;15.00;99.90;;;;;;10423159;28;20075;-66
2022/09/10 07:28:31;;;;;;;3.72;1.08;;;15.10;99.90;;;;;;10431478;28;20056;-69
2022/09/10 07:33:33;;;;;;;2.05;0.52;;;15.20;99.90;;;;;;10421587;28;20049;-70
2022/09/10 07:38:36;;;;;;;2.78;0.63;;;15.20;99.90;;;;;;10432251;28;20060;-68
2022/09/10 07:43:39;;;;;;;2.70;0.95;;;15.20;99.90;;;;;;10439653;28;20049;-72
2022/09/10 07:48:41;;;;;;;1.23;0.82;;;15.20;99.90;;;;;;10414436;28;20072;-71
2022/09/10 07:53:43;;;;;;;3.88;0.88;;;15.20;99.90;;;;;;10418162;28;20128;-70
2022/09/10 07:58:52;;;;;;;2.85;0.90;;;15.20;99.90;;;;;;10421872;28;20046;-65
2022/09/10 08:03:59;;;;;;;2.42;0.95;;;15.30;99.90;;;;;;10421941;28;20045;-66
2022/09/10 08:09:03;;;;;;;;;;;15.30;99.90;;;;;;10415815;28;20049;-66
2022/09/10 08:14:05;;;;;;;1.50;0.90;;;15.50;99.90;;;;;;10420840;28;19921;-68
2022/09/10 08:19:09;;;;;;;2.45;0.90;;;15.60;99.90;;;;;;10428267;28;20145;-65
2022/09/10 08:24:10;;;;;;;3.75;0.95;;;15.60;99.90;;;;;;10429171;28;20064;-67
2022/09/10 08:29:12;;;;;;;3.80;1.00;;;15.70;99.90;;;;;;10415661;28;20056;-68
2022/09/10 08:34:14;;;;;;;2.00;1.00;;;15.80;99.90;;;;;;10417079;28;20083;-66
2022/09/10 08:39:15;;;;;;;7.50;3.25;;;15.90;99.90;;;;;;10394131;28;20073;-67
2022/09/10 08:44:33;;;;;;;1.52;1.23;;;15.90;99.90;;;;;;10393125;28;20656;-68
2022/09/10 08:49:57;;;;;;;4.35;0.90;;;15.90;99.90;;;;;;10397107;28;20136;-69
2022/09/10 08:55:15;;;;;;;4.88;1.10;;;15.90;99.90;;;;;;10392617;28;20124;-68
2022/09/10 09:00:21;;;;;;;2.40;0.70;;;16.10;99.90;;;;;;10392978;28;20041;-70
2022/09/10 09:05:24;;;;;;;3.60;1.05;;;16.10;99.90;;;;;;10392683;28;20739;-69
2022/09/10 09:10:45;;;;;;;4.50;0.98;;;16.20;99.90;;;;;;10399441;28;20056;-67
2022/09/10 09:16:00;;;;;;;5.38;1.17;;;16.20;99.90;;;;;;10389833;28;20045;-66
2022/09/10 09:21:15;;;;;;;4.28;0.75;;;16.40;99.90;;;;;;10406779;28;20052;-66
2022/09/10 09:26:18;;;;;;;2.05;1.25;;;16.50;99.90;;;;;;10396108;28;20494;-67
2022/09/10 09:31:29;;;;;;;2.88;0.52;;;16.60;99.90;;;;;;10401930;28;20140;-69
2022/09/10 09:36:37;;;;;;;3.13;0.55;;;16.80;99.90;;;;;;10408968;28;20051;-68
2022/09/10 09:41:54;;;;;;;1.08;0.50;;;16.90;99.90;;;;;;10389690;28;20133;-70
2022/09/10 09:46:56;;;;;;;0.68;0.57;;;17.20;99.90;;;;;;10402141;28;20084;-68
2022/09/10 09:51:58;;;;;;;4.28;0.90;;;17.40;99.90;;;;;;10412253;28;20139;-68
2022/09/10 09:57:00;;;;;;;2.58;0.50;;;17.40;99.90;;;;;;10406736;28;20068;-69
2022/09/10 10:02:23;;;;;;;4.40;0.63;;;17.30;99.90;;;;;;10394867;28;20133;-66
2022/09/10 10:07:30;;;;;;;6.18;0.70;;;17.10;99.90;;;;;;10401907;28;20054;-66
2022/09/10 10:12:33;;;;;;;5.30;0.40;;;16.90;99.90;;;;;;10397710;28;20483;-69
2022/09/10 10:17:40;;;;;;;9.43;0.45;;;16.90;99.90;;;;;;10406455;28;20120;-66
2022/09/10 10:22:44;;;;;;;3.53;0.40;;;16.90;99.90;;;;;;10392526;28;20046;-69
2022/09/10 10:27:47;;;;;;;6.22;0.65;;;17.00;99.90;;;;;;10394860;28;20128;-60
2022/09/10 10:33:01;;;;;;;3.30;0.60;;;17.10;99.90;;;;;;10401610;28;20060;-59
2022/09/10 10:38:25;;;;;;;3.95;0.50;;;17.00;99.90;;;;;;10395024;28;20125;-60
2022/09/10 10:44:00;;;;;;;1.85;0.45;;;16.90;99.90;;;;;;10393087;28;20046;-61
2022/09/10 10:49:28;;;;;;;6.35;0.57;;;16.60;99.90;;;;;;10385724;28;20450;-60
2022/09/10 10:55:05;;;;;;;;;;;16.60;99.90;;;;;;10401568;28;20045;-60
2022/09/10 11:00:16;;;;;;;3.22;0.70;;;16.50;99.90;;;;;;10323709;28;20386;-60
2022/09/10 11:05:44;;;;;;;0.63;0.30;;;16.60;99.90;;;;;;10404203;28;20064;-60
2022/09/10 11:10:46;;;;;;;4.35;0.30;;;16.70;99.90;;;;;;10397610;28;20458;-60
2022/09/10 11:16:04;;;;;;;1.20;0.40;;;17.00;99.90;;;;;;10403221;28;20045;-61
2022/09/10 11:21:24;;;;;;;3.13;0.30;;;17.10;99.90;;;;;;10394259;28;20124;-61
2022/09/10 11:26:58;;;;;;;4.00;0.50;;;17.30;99.90;;;;;;10393854;28;20125;-61
2022/09/10 11:32:07;;;;;;;4.65;0.55;;;17.50;99.90;;;;;;10396087;28;20065;-58
2022/09/10 11:37:31;;;;;;;0.73;0.20;;;17.80;99.90;;;;;;10398729;28;20076;-62
2022/09/10 11:42:42;;;;;;;2.70;0.30;;;18.30;99.90;;;;;;10393471;28;20168;-62
2022/09/10 11:47:49;;;;;;;3.80;0.30;;;18.80;99.90;;;;;;10394268;28;20567;-62
2022/09/10 11:52:52;;;;;;;1.40;0.22;;;19.00;99.90;;;;;;10401528;28;20519;-62
2022/09/10 11:57:56;;;;;;;1.42;0.28;;;18.80;99.90;;;;;;10390424;28;20438;-62
2022/09/10 12:03:29;;;;;;;3.58;0.30;;;18.80;99.90;;;;;;10397716;28;20636;-62
2022/09/10 12:09:03;;;;;;;1.45;0.20;;;19.10;99.90;;;;;;10402193;28;20252;-61
2022/09/10 12:14:15;;;;;;;0.40;0.20;;;19.00;99.90;;;;;;10398665;28;20144;-62
2022/09/10 12:19:29;;;;;;;0.35;0.20;;;19.20;99.90;;;;;;10391994;28;20575;-61
2022/09/10 12:24:33;;;;;;;0.35;0.15;;;19.50;99.90;;;;;;10396868;28;20048;-61
2022/09/10 12:29:39;;;;;;;7.97;0.20;;;19.10;99.90;;;;;;10396915;28;20049;-61
2022/09/10 12:34:40;;;;;;;1.02;0.20;;;18.90;99.90;;;;;;10405829;28;20045;-62
2022/09/10 12:39:43;;;;;;;0.40;0.20;;;18.40;99.90;;;;;;10382585;28;20068;-61
2022/09/10 12:44:46;;;;;;;0.73;0.25;;;18.10;99.90;;;;;;10396625;28;20135;-58
2022/09/10 12:49:49;;;;;;;0.70;0.20;;;18.10;99.90;;;;;;10395372;28;20049;-59
2022/09/10 12:55:11;;;;;;;2.28;0.40;;;18.20;99.90;;;;;;10407570;28;20464;-60
2022/09/10 13:00:21;;;;;;;5.35;0.38;;;18.30;99.90;;;;;;10367828;28;20132;-61
2022/09/10 13:05:25;;;;;;;0.25;0.20;;;18.50;99.90;;;;;;10391634;28;20042;-62
2022/09/10 13:10:28;;;;;;;0.93;0.20;;;18.50;99.90;;;;;;10387599;28;20123;-58
2022/09/10 13:15:36;;;;;;;0.70;0.20;;;18.70;99.90;;;;;;10403581;28;20055;-64
2022/09/10 13:20:39;;;;;;;1.45;0.20;;;18.70;99.90;;;;;;10394957;28;20107;-59
2022/09/10 13:25:43;;;;;;;2.42;0.30;;;18.80;99.90;;;;;;10387979;28;20084;-61
2022/09/10 13:30:45;;;;;;;1.38;0.10;;;18.60;99.90;;;;;;10402402;28;20052;-60
2022/09/10 13:36:00;;;;;;;0.43;0.20;;;18.60;99.90;;;;;;10406264;28;20045;-62
2022/09/10 13:41:17;;;;;;;0.40;0.20;;;18.50;99.90;;;;;;10386858;28;20459;-60
2022/09/10 13:46:41;;;;;;;1.48;0.10;;;18.60;99.90;;;;;;10410873;28;20049;-59
2022/09/10 13:51:55;;;;;;;1.40;0.10;;;18.70;99.90;;;;;;10400390;28;20144;-60
2022/09/10 13:57:12;;;;;;;0.10;0.10;;;19.30;99.90;;;;;;10409767;28;20466;-60
2022/09/10 14:02:18;;;;;;;1.55;0.10;;;20.00;99.90;;;;;;10398984;28;20504;-59
2022/09/10 14:07:25;;;;;;;0.30;0.10;;;20.00;99.90;;;;;;10403237;28;20045;-59
2022/09/10 14:12:32;;;;;;;0.40;0.10;;;19.90;99.90;;;;;;10402875;28;20045;-59
2022/09/10 14:17:40;;;;;;;1.75;0.20;;;19.70;99.90;;;;;;10406068;28;20436;-60
2022/09/10 14:22:43;;;;;;;0.20;0.10;;;19.70;99.90;;;;;;10393426;28;20046;-59
2022/09/10 14:27:45;;;;;;;0.15;0.10;;;19.80;99.90;;;;;;10406752;28;20509;-61
2022/09/10 14:32:47;;;;;;;0.10;0.10;;;19.70;99.90;;;;;;10399998;28;20129;-60
2022/09/10 14:37:49;;;;;;;2.60;0.20;;;19.50;99.90;;;;;;10403056;28;20045;-58
2022/09/10 14:42:50;;;;;;;0.10;0.10;;;19.40;99.90;;;;;;10409045;28;20044;-58
2022/09/10 14:47:53;;;;;;;0.52;0.17;;;19.10;99.90;;;;;;10401635;28;20200;-57
2022/09/10 14:52:55;;;;;;;0.50;0.17;;;19.00;99.90;;;;;;10408248;28;20364;-59
2022/09/10 14:57:57;;;;;;;1.38;0.00;;;18.90;99.90;;;;;;10397530;28;20051;-59
2022/09/10 15:02:59;;;;;;;2.28;0.20;;;18.70;99.90;;;;;;10397274;28;20547;-64
2022/09/10 15:08:01;;;;;;;0.30;0.10;;;18.00;99.90;;;;;;10398318;28;20083;-60
2022/09/10 15:13:03;;;;;;;4.65;0.15;;;17.20;99.90;;;;;;10403297;28;20132;-63
2022/09/10 15:18:13;;;;;;;1.63;0.28;;;16.70;99.90;;;;;;10395300;28;20052;-60
2022/09/10 15:23:16;;;;;;;4.53;0.32;;;16.50;99.90;;;;;;10392191;28;20053;-59
2022/09/10 15:28:18;;;;;;;2.13;0.60;;;16.40;99.90;;;;;;10392495;28;20516;-61
2022/09/10 15:33:19;;;;;;;3.92;0.55;;;16.40;99.90;;;;;;10400103;28;20052;-62
2022/09/10 15:38:21;;;;;;;2.90;0.50;;;16.40;99.90;;;;;;10381846;28;20123;-61
2022/09/10 15:43:25;;;;;;;2.28;0.40;;;16.30;99.90;;;;;;10411286;28;20067;-61
2022/09/10 15:48:29;;;;;;;0.82;0.30;;;16.30;99.90;;;;;;10393616;28;20078;-60
2022/09/10 15:53:35;;;;;;;3.67;0.57;;;16.20;99.90;;;;;;10394157;28;20068;-63
2022/09/10 15:58:37;;;;;;;4.32;0.50;;;16.10;99.90;;;;;;10401101;28;20132;-61
2022/09/10 16:03:49;;;;;;;3.58;0.70;;;16.10;99.90;;;;;;10386454;28;20055;-60
2022/09/10 16:08:55;;;;;;;3.17;0.90;;;16.00;99.90;;;;;;10399999;28;20140;-60
2022/09/10 16:14:04;;;;;;;1.40;0.60;;;16.00;99.90;;;;;;10390990;28;20610;-60
2022/09/10 16:19:06;;;;;;;1.90;0.40;;;16.00;99.90;;;;;;10405238;28;20701;-60
2022/09/10 16:24:08;;;;;;;3.95;0.70;;;15.90;99.90;;;;;;10402594;28;20133;-61
2022/09/10 16:29:16;;;;;;;2.45;0.50;;;15.90;99.90;;;;;;10402422;28;20140;-61
2022/09/10 16:34:19;;;;;;;2.45;0.57;;;15.90;99.90;;;;;;10407602;28;20124;-62
2022/09/10 16:39:21;;;;;;;3.28;0.50;;;16.00;99.90;;;;;;10407977;28;20156;-60
2022/09/10 16:44:23;;;;;;;3.45;0.73;;;16.00;99.90;;;;;;10407308;28;20465;-60
2022/09/10 16:49:26;;;;;;;10.38;1.13;;;16.00;99.90;;;;;;10400663;28;20124;-60
2022/09/10 16:54:28;;;;;;;2.65;0.55;;;16.00;99.90;;;;;;10394344;28;20485;-60
2022/09/10 16:59:30;;;;;;;2.80;0.90;;;16.00;99.90;;;;;;10407483;28;20053;-61
2022/09/10 17:04:32;;;;;;;5.30;0.70;;;16.00;99.90;;;;;;10395902;28;20053;-61
2022/09/10 17:09:34;;;;;;;6.60;1.08;;;16.00;99.90;;;;;;10404958;28;20124;-59
2022/09/10 17:14:38;;;;;;;2.67;0.93;;;16.00;99.90;;;;;;10403329;28;20137;-61
2022/09/10 17:19:39;;;;;;;1.77;0.70;;;15.90;99.90;;;;;;10403590;28;20079;-61
2022/09/10 17:24:41;;;;;;;3.47;0.93;;;15.90;99.90;;;;;;10407342;28;20115;-60
2022/09/10 17:29:43;;;;;;;4.53;0.98;;;15.90;99.90;;;;;;10406240;28;20122;-61
2022/09/10 17:34:46;;;;;;;1.88;0.82;;;15.90;99.90;;;;;;10389428;28;20042;-59
2022/09/10 17:39:47;;;;;;;3.50;0.93;;;16.00;99.90;;;;;;10397067;28;20125;-59
2022/09/10 17:44:49;;;;;;;4.72;0.80;;;16.00;99.90;;;;;;10403109;28;20053;-59
2022/09/10 17:49:51;;;;;;;4.40;1.42;;;15.90;99.90;;;;;;10391740;28;20132;-60
2022/09/10 17:54:53;;;;;;;1.83;0.80;;;15.90;99.90;;;;;;10405058;28;20046;-59
2022/09/10 17:59:54;;;;;;;2.67;1.48;;;16.00;99.90;;;;;;10403151;28;20053;-60
2022/09/10 18:04:56;;;;;;;6.32;0.70;;;16.00;99.90;;;;;;10404348;28;20127;-60
2022/09/10 18:09:58;;;;;;;2.70;1.05;;;16.00;99.90;;;;;;10402827;28;20117;-63
2022/09/10 18:14:59;;;;;;;7.70;1.10;;;16.00;99.90;;;;;;10403442;28;20048;-62
2022/09/10 18:20:01;;;;;;;5.30;1.00;;;16.00;99.90;;;;;;10399417;28;20131;-60
2022/09/10 18:25:04;;;;;;;6.60;0.98;;;16.00;99.90;;;;;;10394432;28;20125;-60
2022/09/10 18:30:06;;;;;;;6.32;1.30;;;16.00;99.90;;;;;;10404325;28;20564;-61
2022/09/10 18:35:08;;;;;;;2.00;0.90;;;16.00;99.90;;;;;;10403003;28;20089;-59
2022/09/10 18:40:10;;;;;;;2.17;0.65;;;16.10;99.90;;;;;;10405401;28;20136;-61
2022/09/10 18:45:12;;;;;;;3.95;0.85;;;16.10;99.90;;;;;;10398854;28;20060;-60
2022/09/10 18:50:14;;;;;;;2.65;0.95;;;16.00;99.90;;;;;;10401712;28;20055;-60
2022/09/10 18:55:16;;;;;;;1.90;0.75;;;16.00;99.90;;;;;;10399223;28;20054;-62
2022/09/10 19:00:17;;;;;;;3.28;0.70;;;16.00;99.90;;;;;;10395115;28;20045;-61
2022/09/10 19:05:19;;;;;;;3.67;1.00;;;16.00;99.90;;;;;;10400991;28;20403;-61
2022/09/10 19:10:21;;;;;;;4.38;0.70;;;15.90;99.90;;;;;;10400302;28;20129;-62
2022/09/10 19:15:22;;;;;;;2.35;0.68;;;15.90;99.90;;;;;;10395992;28;20047;-62
2022/09/10 19:20:25;;;;;;;1.90;1.02;;;15.90;99.90;;;;;;10392039;28;20793;-62
2022/09/10 19:25:26;;;;;;;2.30;0.80;;;15.80;99.90;;;;;;10396325;28;20148;-62
2022/09/10 19:30:28;;;;;;;2.72;0.70;;;15.80;99.90;;;;;;10397570;28;20041;-63
2022/09/10 19:35:36;;;;;;;2.47;0.90;;;15.70;99.90;;;;;;10390839;28;20156;-64
2022/09/10 19:40:38;;;;;;;2.75;0.90;;;15.70;99.90;;;;;;10396709;28;20053;-62
2022/09/10 19:45:40;;;;;;;2.83;1.20;;;15.70;99.90;;;;;;10404228;28;20368;-64
2022/09/10 19:50:41;;;;;;;5.90;1.65;;;15.70;99.90;;;;;;10398551;28;20046;-62
2022/09/10 19:55:43;;;;;;;6.03;2.88;;;15.70;99.90;;;;;;10386682;28;20045;-64
2022/09/10 20:00:46;;;;;;;7.70;1.70;;;15.70;99.90;;;;;;10400647;28;20517;-63
2022/09/10 20:05:48;;;;;;;5.55;1.30;;;15.70;99.90;;;;;;10379763;28;20133;-63
2022/09/10 20:10:50;;;;;;;4.45;2.08;;;15.70;99.90;;;;;;10397008;28;20051;-64
2022/09/10 20:15:53;;;;;;;7.20;1.90;;;15.70;99.90;;;;;;10392563;28;20094;-62
2022/09/10 20:20:56;;;;;;;5.40;1.17;;;15.70;99.90;;;;;;10388000;28;20117;-65
2022/09/10 20:26:07;;;;;;;2.15;0.80;;;15.70;99.90;;;;;;10392931;28;20045;-62
2022/09/10 20:31:11;;;;;;;4.32;1.10;;;15.60;99.90;;;;;;10416208;28;20573;-64
2022/09/10 20:36:15;;;;;;;21.27;4.32;;;15.60;99.90;;;;;;10413959;28;20041;-64
2022/09/10 20:41:16;;;;;;;10.50;1.98;;;15.70;99.90;;;;;;10414260;28;20048;-61
2022/09/10 20:46:20;;;;;;;5.63;1.33;;;15.60;99.90;;;;;;10390123;28;20060;-63
2022/09/10 20:51:22;;;;;;;6.40;1.58;;;15.60;99.90;;;;;;10369497;28;20053;-63
2022/09/10 20:56:24;;;;;;;4.28;1.75;;;15.60;99.90;;;;;;10389548;28;20053;-63
2022/09/10 21:01:29;;;;;;;3.70;1.77;;;15.60;99.90;;;;;;10390518;28;20076;-64
2022/09/10 21:06:33;;;;;;;3.40;0.90;;;15.60;99.90;;;;;;10406296;28;20060;-63
2022/09/10 21:11:35;;;;;;;3.20;0.70;;;15.50;99.90;;;;;;10386457;28;20492;-65
2022/09/10 21:16:40;;;;;;;4.75;1.38;;;15.40;99.90;;;;;;10393295;28;20128;-63
2022/09/10 21:21:43;;;;;;;13.05;1.23;;;15.40;99.90;;;;;;10400269;28;20042;-64
2022/09/10 21:26:45;;;;;;;6.22;1.40;;;15.40;99.90;;;;;;10397900;28;20057;-61
2022/09/10 21:31:49;;;;;;;5.38;1.33;;;15.30;99.90;;;;;;10404694;28;20045;-63
2022/09/10 21:36:51;;;;;;;2.58;1.20;;;15.30;99.90;;;;;;10405124;28;20107;-62
2022/09/10 21:41:52;;;;;;;3.58;1.02;;;15.30;99.90;;;;;;10408392;28;20454;-62
2022/09/10 21:46:54;;;;;;;1.10;0.68;;;15.30;99.90;;;;;;10413382;28;20132;-62
2022/09/10 21:51:56;;;;;;;1.95;0.90;;;15.30;99.90;;;;;;10390757;28;20052;-62
2022/09/10 21:56:57;;;;;;;6.45;1.50;;;15.20;99.90;;;;;;10409251;28;20041;-61
2022/09/10 22:01:59;;;;;;;7.07;1.50;;;15.20;99.90;;;;;;10400805;28;20124;-62
2022/09/10 22:07:03;;;;;;;5.15;1.98;;;15.20;99.90;;;;;;10401703;28;20235;-61
2022/09/10 22:12:05;;;;;;;3.97;1.48;;;15.20;99.90;;;;;;10393027;28;20555;-61
2022/09/10 22:17:07;;;;;;;7.30;2.33;;;15.20;99.90;;;;;;10404612;28;20152;-61
2022/09/10 22:22:10;;;;;;;6.07;2.10;;;15.30;99.90;;;;;;10400137;28;20057;-62
2022/09/10 22:27:11;;;;;;;5.15;2.42;;;15.20;99.90;;;;;;10400502;28;20517;-63
2022/09/10 22:32:14;;;;;;;6.47;2.20;;;15.20;99.90;;;;;;10378621;28;20140;-62
2022/09/10 22:37:16;;;;;;;4.82;2.05;;;15.20;99.90;;;;;;10391582;28;20168;-61
2022/09/10 22:42:19;;;;;;;6.72;2.70;;;15.30;99.90;;;;;;10397483;28;20073;-61
2022/09/10 22:47:21;;;;;;;9.18;2.90;;;15.20;99.90;;;;;;10389083;28;20099;-63
2022/09/10 22:52:23;;;;;;;15.00;4.43;;;15.20;99.90;;;;;;10397710;28;20088;-62
2022/09/10 22:57:25;;;;;;;0.00;0.00;;;15.20;99.90;;;;;;10395096;28;20156;-61
2022/09/10 23:02:27;;;;;;;0.00;0.00;;;15.20;99.90;;;;;;10400217;28;20355;-62
2022/09/10 23:07:29;;;;;;;0.00;0.00;;;15.20;99.90;;;;;;10395571;28;20061;-61
2022/09/10 23:12:31;;;;;;;0.00;0.00;;;15.20;99.90;;;;;;10405832;28;20040;-64
2022/09/10 23:17:33;;;;;;;0.00;0.00;;;15.20;99.90;;;;;;10396771;28;20077;-62
2022/09/10 23:22:34;;;;;;;0.00;0.00;;;15.20;99.90;;;;;;10402811;28;20124;-62
2022/09/10 23:27:36;;;;;;;0.00;0.00;;;15.30;99.90;;;;;;10397504;28;20132;-62
2022/09/10 23:32:37;;;;;;;0.00;0.00;;;15.30;99.90;;;;;;10390660;28;20139;-64
2022/09/10 23:37:39;;;;;;;0.00;0.00;;;15.30;99.90;;;;;;10390158;28;20042;-63
2022/09/10 23:42:41;;;;;;;0.00;0.00;;;15.30;99.90;;;;;;10397306;28;20132;-64
2022/09/10 23:47:42;;;;;;;0.00;0.00;;;15.40;99.90;;;;;;10396687;28;20048;-65
2022/09/10 23:52:44;;;;;;;0.00;0.00;;;15.40;99.90;;;;;;10379675;28;20122;-63
2022/09/10 23:57:46;;;;;;;0.00;0.00;;;15.40;99.90;;;;;;10398234;28;20069;-63
